Time;durP1;ratioP1;P1;durP2;ratioP2;P2;SDS_P1;SDS_P2;PMS_P1;PMS_P2;Temp;Humidity;BMP_temperature;BMP_pressure;BME280_temperature;BME280_humidity;BME280_pressure;Samples;Min_cycle;Max_cycle;Signal;HPM_P1;HPM_P2
2023/09/25 00:00:00;;;;;;;2.17;1.00;;;22.20;50.20;;;;;;5054377;28;20025;-77
2023/09/25 00:02:28;;;;;;;4.93;0.82;;;22.30;50.80;;;;;;5069644;28;20042;-79
2023/09/25 00:04:55;;;;;;;4.75;0.95;;;22.40;49.60;;;;;;5064244;28;20131;-80
2023/09/25 00:07:22;;;;;;;5.55;0.93;;;22.60;48.90;;;;;;5056022;28;20411;-81
2023/09/25 00:09:50;;;;;;;2.20;0.75;;;22.80;48.20;;;;;;5063746;28;20107;-78
2023/09/25 00:12:18;;;;;;;1.92;0.70;;;22.90;48.30;;;;;;5067340;28;20052;-77
2023/09/25 00:14:45;;;;;;;1.65;0.90;;;23.10;48.30;;;;;;5062365;28;20064;-76
2023/09/25 00:17:13;;;;;;;3.20;0.70;;;23.40;46.70;;;;;;5064439;28;20379;-78
2023/09/25 00:19:41;;;;;;;4.00;0.90;;;23.60;45.90;;;;;;5058859;28;20032;-82
2023/09/25 00:22:09;;;;;;;3.25;0.70;;;23.70;44.60;;;;;;5055251;28;20387;-77
2023/09/25 00:24:36;;;;;;;4.97;0.90;;;23.90;44.50;;;;;;5059263;28;20108;-80
2023/09/25 00:27:04;;;;;;;2.15;0.93;;;24.10;43.90;;;;;;5057581;28;20116;-78
2023/09/25 00:29:31;;;;;;;2.08;0.75;;;24.10;43.50;;;;;;5052266;28;20108;-78
2023/09/25 00:31:58;;;;;;;1.13;0.73;;;24.10;42.80;;;;;;5052245;28;20025;-79
2023/09/25 00:34:26;;;;;;;1.48;0.85;;;24.20;43.10;;;;;;5061978;28;20422;-79
2023/09/25 00:36:53;;;;;;;3.45;0.80;;;24.30;43.50;;;;;;5050579;28;20041;-77
2023/09/25 00:39:20;;;;;;;1.63;0.80;;;24.30;42.40;;;;;;5053850;28;20029;-77
2023/09/25 00:41:48;;;;;;;2.70;0.68;;;24.40;42.80;;;;;;5052019;28;20114;-79
2023/09/25 00:44:16;;;;;;;3.45;0.90;;;24.50;42.10;;;;;;5060910;28;20033;-78
2023/09/25 00:46:44;;;;;;;3.05;0.70;;;24.50;43.20;;;;;;5058211;28;20562;-78
2023/09/25 00:49:12;;;;;;;2.83;1.08;;;24.70;42.40;;;;;;5069219;28;20059;-77
2023/09/25 00:51:39;;;;;;;1.10;0.60;;;24.80;41.30;;;;;;5075866;28;20021;-78
2023/09/25 00:54:09;;;;;;;1.17;0.88;;;25.00;41.70;;;;;;5075332;28;20365;-77
2023/09/25 00:56:37;;;;;;;2.35;0.80;;;25.20;40.90;;;;;;5071632;28;20121;-78
2023/09/25 00:59:05;;;;;;;4.43;1.30;;;25.40;41.00;;;;;;5075463;28;20353;-77
2023/09/25 01:01:34;;;;;;;2.83;1.10;;;25.60;42.00;;;;;;5074460;28;20628;-80
2023/09/25 01:04:01;;;;;;;4.05;1.00;;;25.80;42.10;;;;;;5075666;28;20483;-79
2023/09/25 01:06:29;;;;;;;3.17;1.50;;;25.90;41.40;;;;;;5064583;28;20060;-78
2023/09/25 01:08:56;;;;;;;2.20;1.33;;;25.90;42.20;;;;;;5068638;28;20024;-78
2023/09/25 01:11:24;;;;;;;3.35;1.30;;;25.90;42.30;;;;;;5075256;28;20021;-79
2023/09/25 01:13:51;;;;;;;2.95;1.42;;;25.90;42.90;;;;;;5075778;28;20043;-78
2023/09/25 01:16:19;;;;;;;2.95;1.20;;;26.00;42.50;;;;;;5074006;28;20033;-79
2023/09/25 01:18:47;;;;;;;4.25;1.48;;;26.10;42.40;;;;;;5074991;28;20056;-79
2023/09/25 01:21:14;;;;;;;6.20;1.33;;;26.00;42.50;;;;;;5086371;28;20019;-79
2023/09/25 01:23:41;;;;;;;3.15;1.42;;;26.00;43.10;;;;;;5072289;28;20106;-78
2023/09/25 01:26:09;;;;;;;3.13;1.35;;;26.20;43.30;;;;;;5074990;28;20025;-77
2023/09/25 01:28:36;;;;;;;4.35;1.70;;;26.20;42.90;;;;;;5075053;28;20483;-79
2023/09/25 01:31:07;;;;;;;3.38;1.50;;;26.10;42.90;;;;;;5068158;28;20066;-78
2023/09/25 01:33:35;;;;;;;2.53;1.40;;;26.00;43.50;;;;;;5073871;28;20043;-78
2023/09/25 01:36:02;;;;;;;4.07;1.50;;;26.00;43.40;;;;;;5074694;28;20023;-79
2023/09/25 01:38:29;;;;;;;3.08;1.40;;;25.90;43.60;;;;;;5073352;28;20021;-79
2023/09/25 01:40:57;;;;;;;5.18;1.42;;;25.90;43.80;;;;;;5074584;28;20058;-78
2023/09/25 01:43:24;;;;;;;3.55;1.67;;;26.00;43.90;;;;;;5074858;28;20367;-83
2023/09/25 01:45:52;;;;;;;2.95;1.42;;;25.90;43.70;;;;;;5074948;28;20503;-78
2023/09/25 01:48:19;;;;;;;4.32;1.50;;;26.00;44.30;;;;;;5074580;28;20430;-80
2023/09/25 01:50:47;;;;;;;1.95;1.15;;;26.10;43.90;;;;;;5074686;28;20012;-78
2023/09/25 01:53:14;;;;;;;4.72;1.40;;;26.20;43.50;;;;;;5074258;28;20031;-79
2023/09/25 01:55:42;;;;;;;4.53;1.40;;;26.20;43.80;;;;;;5075079;28;20016;-78
2023/09/25 01:58:09;;;;;;;3.45;1.23;;;26.20;43.80;;;;;;5074572;28;20479;-77
2023/09/25 02:00:36;;;;;;;4.43;1.48;;;26.20;43.70;;;;;;5074663;28;20032;-84
2023/09/25 02:03:05;;;;;;;4.65;1.25;;;26.30;43.40;;;;;;5080495;28;20036;-80
2023/09/25 02:05:32;;;;;;;2.72;1.10;;;26.30;43.50;;;;;;5094642;28;20438;-78
2023/09/25 02:08:00;;;;;;;5.03;1.00;;;26.40;43.50;;;;;;5085089;28;20037;-77
2023/09/25 02:10:27;;;;;;;2.75;1.10;;;26.40;43.20;;;;;;5074496;28;20547;-78
2023/09/25 02:12:55;;;;;;;2.22;1.00;;;26.30;43.60;;;;;;5074614;28;20037;-77
2023/09/25 02:15:22;;;;;;;2.30;1.10;;;26.30;43.60;;;;;;5074224;28;20028;-76
2023/09/25 02:17:49;;;;;;;3.88;1.45;;;26.20;43.70;;;;;;5074033;28;20056;-78
2023/09/25 02:20:17;;;;;;;4.18;1.55;;;26.20;44.00;;;;;;5072937;28;20360;-77
2023/09/25 02:22:45;;;;;;;3.85;1.27;;;26.20;43.90;;;;;;5072712;28;20028;-81
2023/09/25 02:25:12;;;;;;;3.47;1.20;;;26.30;44.00;;;;;;5073597;28;20383;-76
2023/09/25 02:27:40;;;;;;;3.63;1.42;;;26.30;43.90;;;;;;5074874;28;20039;-79
2023/09/25 02:30:09;;;;;;;3.45;1.30;;;26.50;43.00;;;;;;5073901;28;20025;-79
2023/09/25 02:32:44;;;;;;;3.97;1.40;;;26.60;43.00;;;;;;5061677;28;20029;-77
2023/09/25 02:35:12;;;;;;;2.25;1.40;;;26.50;43.00;;;;;;5053712;28;20048;-79
2023/09/25 02:37:40;;;;;;;2.95;1.33;;;26.40;43.60;;;;;;5052728;28;20052;-77
2023/09/25 02:40:13;;;;;;;4.13;1.40;;;26.30;43.50;;;;;;5060194;28;21079;-77
2023/09/25 02:42:41;;;;;;;5.22;1.35;;;26.40;43.30;;;;;;5073957;28;20032;-77
2023/09/25 02:45:09;;;;;;;4.93;1.13;;;26.40;43.20;;;;;;5075534;28;20115;-79
2023/09/25 02:47:36;;;;;;;7.18;1.42;;;26.30;43.60;;;;;;5072829;28;20446;-77
2023/09/25 02:50:05;;;;;;;3.03;1.50;;;26.30;43.60;;;;;;5073559;28;20024;-79
2023/09/25 02:52:32;;;;;;;4.32;1.17;;;26.30;43.80;;;;;;5071508;28;20364;-79
2023/09/25 02:55:00;;;;;;;7.20;1.42;;;26.30;44.10;;;;;;5065422;28;20033;-78
2023/09/25 02:57:27;;;;;;;3.15;1.30;;;26.30;43.80;;;;;;5073176;28;20036;-77
2023/09/25 02:59:55;;;;;;;4.40;1.00;;;26.30;43.60;;;;;;5073202;28;20050;-78
2023/09/25 03:02:22;;;;;;;4.43;1.20;;;26.30;43.70;;;;;;5073050;28;20032;-77
2023/09/25 03:04:49;;;;;;;2.97;1.10;;;26.30;43.30;;;;;;5072595;28;20035;-77
2023/09/25 03:07:17;;;;;;;4.30;1.17;;;26.30;43.40;;;;;;5073216;28;20037;-77
2023/09/25 03:09:44;;;;;;;4.60;1.08;;;26.30;43.40;;;;;;5067223;28;20043;-77
2023/09/25 03:12:11;;;;;;;2.67;1.30;;;26.30;43.60;;;;;;5072956;28;20446;-77
2023/09/25 03:14:39;;;;;;;4.65;1.27;;;26.30;43.40;;;;;;5064219;28;20051;-77
2023/09/25 03:17:06;;;;;;;2.78;1.15;;;26.30;43.40;;;;;;5052645;28;20024;-76
2023/09/25 03:19:35;;;;;;;4.05;1.35;;;26.40;43.60;;;;;;5060364;28;20032;-78
2023/09/25 03:22:03;;;;;;;4.60;1.20;;;26.40;43.40;;;;;;5072524;28;20048;-76
2023/09/25 03:24:31;;;;;;;4.47;1.00;;;26.40;43.10;;;;;;5068954;28;20153;-76
2023/09/25 03:26:59;;;;;;;3.28;1.10;;;26.40;43.40;;;;;;5054712;28;20486;-77
2023/09/25 03:29:26;;;;;;;3.15;1.33;;;26.50;43.10;;;;;;5063245;28;20036;-78
2023/09/25 03:31:53;;;;;;;4.32;1.30;;;26.50;43.10;;;;;;5071484;28;20020;-77
2023/09/25 03:34:21;;;;;;;4.03;1.35;;;26.50;43.10;;;;;;5072828;28;20021;-78
2023/09/25 03:36:48;;;;;;;4.50;1.60;;;26.60;42.70;;;;;;5072597;28;20113;-78
2023/09/25 03:39:17;;;;;;;5.15;1.50;;;26.60;42.80;;;;;;5072193;28;20028;-77
2023/09/25 03:41:44;;;;;;;5.13;1.30;;;26.50;42.80;;;;;;5072836;28;20380;-77
2023/09/25 03:44:12;;;;;;;1.70;1.08;;;26.70;42.60;;;;;;5072845;28;20491;-77
2023/09/25 03:46:42;;;;;;;4.05;1.20;;;26.70;42.20;;;;;;5072384;28;20090;-81
2023/09/25 03:49:09;;;;;;;4.40;1.20;;;26.80;41.70;;;;;;5072278;28;20029;-78
2023/09/25 03:51:37;;;;;;;2.88;1.70;;;26.70;42.00;;;;;;5072760;28;20107;-77
2023/09/25 03:54:04;;;;;;;4.45;1.70;;;26.80;42.00;;;;;;5072688;28;20498;-77
2023/09/25 03:56:32;;;;;;;2.83;1.25;;;26.90;41.40;;;;;;5072728;28;20051;-77
2023/09/25 03:58:59;;;;;;;7.10;1.40;;;26.90;41.60;;;;;;5071167;28;20532;-76
2023/09/25 04:01:26;;;;;;;2.75;1.25;;;27.00;41.30;;;;;;5072299;28;20487;-77
2023/09/25 04:03:54;;;;;;;3.13;1.40;;;27.00;41.00;;;;;;5072700;28;20394;-76
2023/09/25 04:06:21;;;;;;;4.07;1.38;;;27.00;41.50;;;;;;5072582;28;20020;-78
2023/09/25 04:08:50;;;;;;;3.78;1.40;;;27.00;41.40;;;;;;5072509;28;20036;-76
2023/09/25 04:11:18;;;;;;;4.18;1.40;;;26.90;41.70;;;;;;5072332;28;20099;-78
2023/09/25 04:13:47;;;;;;;3.60;1.67;;;27.00;42.10;;;;;;5072512;28;20108;-76
2023/09/25 04:16:14;;;;;;;5.63;1.80;;;26.90;42.40;;;;;;5073212;28;20067;-78
2023/09/25 04:18:45;;;;;;;5.90;1.38;;;27.00;42.90;;;;;;5076514;28;20020;-78
2023/09/25 04:21:17;;;;;;;4.22;1.40;;;27.00;42.90;;;;;;5076020;28;20056;-77
2023/09/25 04:23:45;;;;;;;3.25;1.38;;;27.00;43.20;;;;;;5076359;28;20021;-78
2023/09/25 04:26:12;;;;;;;3.08;1.27;;;27.00;43.30;;;;;;5076236;28;20016;-78
2023/09/25 04:28:41;;;;;;;5.22;1.50;;;27.00;43.50;;;;;;5076050;28;20033;-77
2023/09/25 04:31:12;;;;;;;5.35;1.60;;;27.00;43.80;;;;;;5075936;28;20056;-77
2023/09/25 04:33:40;;;;;;;4.93;1.75;;;27.00;44.10;;;;;;5076078;28;20020;-78
2023/09/25 04:36:10;;;;;;;6.07;1.58;;;26.90;44.10;;;;;;5076026;28;20032;-78
2023/09/25 04:38:38;;;;;;;8.90;1.85;;;26.90;44.30;;;;;;5075908;28;20028;-77
2023/09/25 04:41:05;;;;;;;5.03;1.58;;;26.90;44.50;;;;;;5075741;28;20028;-78
2023/09/25 04:43:33;;;;;;;6.45;1.65;;;27.00;44.70;;;;;;5075826;28;20028;-77
2023/09/25 04:46:01;;;;;;;4.15;1.50;;;27.00;44.50;;;;;;5075811;28;20352;-77
2023/09/25 04:48:31;;;;;;;4.40;1.70;;;27.00;44.30;;;;;;5075397;28;20483;-77
2023/09/25 04:50:59;;;;;;;5.70;1.65;;;26.90;44.30;;;;;;5060809;28;20043;-80
2023/09/25 04:53:26;;;;;;;5.25;1.58;;;26.90;44.30;;;;;;5062438;28;20020;-76
2023/09/25 04:55:56;;;;;;;4.95;1.45;;;26.90;44.60;;;;;;5073577;28;20035;-80
2023/09/25 04:58:24;;;;;;;7.63;1.60;;;26.90;44.90;;;;;;5055312;28;20507;-77
2023/09/25 05:00:53;;;;;;;7.70;1.73;;;26.90;44.80;;;;;;5059754;28;20028;-78
2023/09/25 05:03:20;;;;;;;5.68;1.80;;;26.90;44.90;;;;;;5071247;28;20042;-78
2023/09/25 05:05:48;;;;;;;7.43;1.35;;;26.90;45.30;;;;;;5068992;28;20021;-78
2023/09/25 05:08:15;;;;;;;6.93;1.58;;;26.90;45.20;;;;;;5055522;28;20068;-77
2023/09/25 05:10:44;;;;;;;4.30;1.50;;;26.90;45.40;;;;;;5062830;28;20016;-76
2023/09/25 05:13:11;;;;;;;6.18;1.77;;;26.90;45.30;;;;;;5072168;28;20040;-76
2023/09/25 05:15:39;;;;;;;7.05;1.58;;;27.00;45.40;;;;;;5074964;28;20036;-77
2023/09/25 05:18:07;;;;;;;12.32;1.80;;;26.90;45.30;;;;;;5069947;28;20021;-76
2023/09/25 05:20:34;;;;;;;4.70;1.95;;;26.90;45.60;;;;;;5055378;28;20025;-77
2023/09/25 05:23:01;;;;;;;4.85;1.65;;;26.90;45.80;;;;;;5063820;28;20017;-76
2023/09/25 05:25:29;;;;;;;5.43;1.67;;;26.80;46.10;;;;;;5054932;28;20477;-78
2023/09/25 05:27:57;;;;;;;3.55;1.55;;;26.80;46.20;;;;;;5059064;28;20040;-76
2023/09/25 05:30:25;;;;;;;4.32;1.70;;;26.80;46.20;;;;;;5075162;28;20073;-76
2023/09/25 05:32:53;;;;;;;6.43;1.85;;;26.80;46.30;;;;;;5074970;28;20020;-77
2023/09/25 05:35:21;;;;;;;8.10;2.25;;;26.80;46.50;;;;;;5079157;28;20499;-78
2023/09/25 05:37:49;;;;;;;5.38;1.58;;;26.70;46.80;;;;;;5095024;28;20070;-80
2023/09/25 05:40:19;;;;;;;7.68;1.75;;;26.70;47.10;;;;;;5076342;28;20029;-78
2023/09/25 05:42:47;;;;;;;13.95;2.10;;;26.50;47.40;;;;;;5072087;28;20067;-82
2023/09/25 05:45:16;;;;;;;4.05;1.60;;;26.50;47.90;;;;;;5073345;28;20036;-82
2023/09/25 05:47:47;;;;;;;8.52;1.90;;;26.30;47.80;;;;;;5074505;28;20032;-78
2023/09/25 05:50:15;;;;;;;5.88;1.52;;;26.20;48.00;;;;;;5073659;28;20033;-82
2023/09/25 05:52:42;;;;;;;7.22;1.80;;;26.00;48.30;;;;;;5074802;28;20031;-77
2023/09/25 05:55:10;;;;;;;7.13;1.58;;;25.90;48.60;;;;;;5056779;28;20510;-77
2023/09/25 05:57:38;;;;;;;4.68;1.50;;;25.80;48.70;;;;;;5074625;28;20104;-77
2023/09/25 06:00:13;;;;;;;6.13;1.30;;;25.70;49.00;;;;;;5074697;28;20038;-77
2023/09/25 06:02:40;;;;;;;;;;;25.50;49.40;;;;;;5073332;28;20047;-76
2023/09/25 06:05:08;;;;;;;4.65;1.25;;;25.30;49.80;;;;;;5072621;28;19959;-79
2023/09/25 06:07:36;;;;;;;3.42;1.58;;;25.30;50.10;;;;;;5073982;28;20060;-78
2023/09/25 06:10:10;;;;;;;4.22;1.40;;;25.20;50.20;;;;;;5056129;28;20025;-78
2023/09/25 06:12:39;;;;;;;2.75;1.20;;;25.10;50.80;;;;;;5068676;28;20035;-77
2023/09/25 06:15:10;;;;;;;7.50;1.70;;;24.90;51.10;;;;;;5069414;28;20386;-77
2023/09/25 06:17:39;;;;;;;7.55;1.65;;;24.80;51.30;;;;;;5057291;28;20516;-78
2023/09/25 06:20:14;;;;;;;5.43;1.50;;;24.70;51.60;;;;;;5053758;28;20107;-77
2023/09/25 06:22:46;;;;;;;5.95;1.58;;;24.60;51.90;;;;;;5052961;28;20064;-80
2023/09/25 06:25:17;;;;;;;7.97;1.98;;;24.50;52.00;;;;;;5072251;28;20463;-82
2023/09/25 06:27:48;;;;;;;5.13;1.48;;;24.40;52.10;;;;;;5075550;28;20033;-80
2023/09/25 06:30:16;;;;;;;8.07;1.50;;;24.30;52.80;;;;;;5062757;28;20506;-79
2023/09/25 06:32:43;;;;;;;4.65;1.50;;;24.20;52.70;;;;;;5069035;28;20056;-77
2023/09/25 06:35:11;;;;;;;2.67;1.30;;;24.00;53.30;;;;;;5054103;28;20029;-78
2023/09/25 06:37:38;;;;;;;3.78;1.20;;;23.80;53.60;;;;;;5060314;28;20127;-77
2023/09/25 06:40:15;;;;;;;5.35;1.50;;;23.70;53.90;;;;;;5061614;28;20436;-77
2023/09/25 06:42:43;;;;;;;7.07;1.60;;;23.60;54.50;;;;;;5073902;28;20120;-78
2023/09/25 06:45:11;;;;;;;7.15;1.80;;;23.40;55.30;;;;;;5076087;28;20490;-77
2023/09/25 06:47:38;;;;;;;7.88;1.70;;;23.30;55.00;;;;;;5073079;28;20032;-77
2023/09/25 06:50:06;;;;;;;5.63;1.80;;;23.10;55.60;;;;;;5073181;28;20055;-77
2023/09/25 06:52:36;;;;;;;4.85;1.55;;;23.00;56.40;;;;;;5073148;28;20024;-77
2023/09/25 06:55:04;;;;;;;6.60;1.42;;;22.90;56.50;;;;;;5054736;28;20028;-78
2023/09/25 06:57:31;;;;;;;6.40;1.52;;;22.80;56.80;;;;;;5073220;28;20043;-79
2023/09/25 06:59:58;;;;;;;8.27;1.58;;;22.70;57.10;;;;;;5061390;28;20256;-77
2023/09/25 07:02:26;;;;;;;4.18;1.23;;;22.70;57.30;;;;;;5063091;28;20095;-77
2023/09/25 07:04:59;;;;;;;7.75;1.50;;;22.50;57.20;;;;;;5061039;28;20029;-78
2023/09/25 07:07:27;;;;;;;6.18;1.60;;;22.50;57.80;;;;;;5060985;28;20112;-77
2023/09/25 07:09:54;;;;;;;6.70;1.50;;;22.40;57.80;;;;;;5067671;28;20403;-79
2023/09/25 07:12:22;;;;;;;4.80;1.55;;;22.40;57.60;;;;;;5057858;28;20040;-78
2023/09/25 07:14:55;;;;;;;4.25;1.20;;;22.30;57.80;;;;;;5070246;28;20032;-78
2023/09/25 07:17:27;;;;;;;8.15;1.30;;;22.30;57.50;;;;;;5058473;28;20031;-78
2023/09/25 07:19:55;;;;;;;5.70;2.13;;;22.20;57.40;;;;;;5057598;28;20020;-78
2023/09/25 07:22:28;;;;;;;5.63;1.60;;;22.30;57.60;;;;;;5067870;28;20652;-79
2023/09/25 07:24:56;;;;;;;5.53;2.00;;;22.30;57.30;;;;;;5070282;28;20031;-77
2023/09/25 07:27:23;;;;;;;7.03;1.38;;;22.20;57.40;;;;;;5071007;28;20034;-78
2023/09/25 07:29:50;;;;;;;4.43;1.42;;;22.10;57.30;;;;;;5062296;28;20119;-77
2023/09/25 07:32:18;;;;;;;4.50;1.20;;;22.20;57.20;;;;;;5068580;28;20020;-77
2023/09/25 07:34:46;;;;;;;5.00;1.73;;;22.10;57.10;;;;;;5051825;28;20501;-78
2023/09/25 07:37:14;;;;;;;3.03;1.38;;;22.00;57.30;;;;;;5053477;28;20048;-78
2023/09/25 07:39:42;;;;;;;5.93;1.75;;;22.00;57.70;;;;;;5068443;28;20032;-78
2023/09/25 07:42:09;;;;;;;5.80;1.60;;;21.90;57.80;;;;;;5063820;28;20028;-78
2023/09/25 07:44:38;;;;;;;7.65;1.45;;;21.90;57.90;;;;;;5072379;28;20028;-78
2023/09/25 07:47:12;;;;;;;6.70;1.60;;;21.80;58.00;;;;;;5056021;28;20037;-77
2023/09/25 07:49:44;;;;;;;4.35;1.40;;;21.70;58.60;;;;;;5067959;28;20035;-78
2023/09/25 07:52:19;;;;;;;4.55;1.30;;;21.70;58.50;;;;;;5075822;28;20537;-78
2023/09/25 07:54:50;;;;;;;6.03;1.50;;;21.70;58.40;;;;;;5078521;28;20131;-77
2023/09/25 07:57:19;;;;;;;5.30;1.58;;;21.60;58.90;;;;;;5072179;28;20036;-77
2023/09/25 07:59:48;;;;;;;4.68;1.48;;;21.50;59.00;;;;;;5060250;28;20021;-78
2023/09/25 08:02:20;;;;;;;6.93;1.48;;;21.50;59.40;;;;;;5062043;28;20099;-77
2023/09/25 08:04:50;;;;;;;7.40;1.77;;;21.50;59.10;;;;;;5069448;28;20052;-77
2023/09/25 08:07:18;;;;;;;7.38;1.60;;;21.40;59.50;;;;;;5058775;28;20044;-78
2023/09/25 08:09:45;;;;;;;6.30;1.70;;;21.40;59.70;;;;;;5068272;28;20052;-77
2023/09/25 08:12:13;;;;;;;6.78;1.45;;;21.30;60.00;;;;;;5070765;28;20059;-78
2023/09/25 08:14:40;;;;;;;5.28;1.30;;;21.30;60.50;;;;;;5078862;28;20028;-76
2023/09/25 08:17:08;;;;;;;5.63;1.63;;;21.30;60.30;;;;;;5075974;28;20025;-78
2023/09/25 08:19:36;;;;;;;6.55;1.42;;;21.30;60.80;;;;;;5062141;28;20031;-78
2023/09/25 08:22:03;;;;;;;9.65;1.90;;;21.20;60.90;;;;;;5064528;28;20387;-78
2023/09/25 08:24:30;;;;;;;4.72;1.52;;;21.20;61.40;;;;;;5064397;28;20387;-79
2023/09/25 08:26:58;;;;;;;9.15;1.48;;;21.00;61.20;;;;;;5063336;28;20029;-78
2023/09/25 08:29:25;;;;;;;7.22;1.55;;;21.00;61.70;;;;;;5066995;28;20036;-81
2023/09/25 08:31:53;;;;;;;5.50;1.85;;;20.90;61.70;;;;;;5062447;28;20028;-78
2023/09/25 08:34:21;;;;;;;10.10;1.90;;;20.90;62.20;;;;;;5059046;28;20490;-79
2023/09/25 08:36:48;;;;;;;7.55;1.80;;;20.90;62.40;;;;;;5069978;28;20071;-77
2023/09/25 08:39:17;;;;;;;8.95;1.90;;;20.80;62.90;;;;;;5064049;28;20033;-77
2023/09/25 08:41:46;;;;;;;7.32;1.45;;;20.80;63.10;;;;;;5079312;28;20028;-77
2023/09/25 08:44:16;;;;;;;8.20;2.00;;;20.80;62.70;;;;;;5078820;28;20040;-78
2023/09/25 08:46:45;;;;;;;8.80;1.92;;;20.80;63.30;;;;;;5076919;28;20024;-78
2023/09/25 08:49:12;;;;;;;7.55;1.67;;;20.80;63.90;;;;;;5064169;28;20036;-80
2023/09/25 08:51:41;;;;;;;6.82;1.60;;;20.80;64.30;;;;;;5074818;28;20028;-78
2023/09/25 08:54:09;;;;;;;11.38;1.63;;;20.80;64.80;;;;;;5064753;28;20120;-78
2023/09/25 08:56:37;;;;;;;6.88;1.50;;;20.70;65.10;;;;;;5058466;28;20071;-79
2023/09/25 08:59:05;;;;;;;9.95;1.63;;;20.70;65.60;;;;;;5067132;28;20111;-77
2023/09/25 09:01:34;;;;;;;8.75;1.65;;;20.60;66.00;;;;;;5065733;28;20035;-78
2023/09/25 09:04:02;;;;;;;10.30;2.08;;;20.60;66.20;;;;;;5074658;28;20021;-79
2023/09/25 09:06:29;;;;;;;5.55;1.88;;;20.50;66.50;;;;;;5062024;28;20520;-79
2023/09/25 09:08:59;;;;;;;10.23;1.90;;;20.50;66.40;;;;;;5060739;28;20037;-78
2023/09/25 09:11:27;;;;;;;5.25;1.80;;;20.50;66.20;;;;;;5064418;28;20070;-77
2023/09/25 09:13:55;;;;;;;5.20;1.40;;;20.40;66.10;;;;;;5073252;28;20104;-77
2023/09/25 09:16:23;;;;;;;10.38;2.00;;;20.40;66.00;;;;;;5064860;28;20496;-78
2023/09/25 09:19:07;;;;;;;7.38;1.65;;;20.40;66.00;;;;;;5061516;28;20025;-79
2023/09/25 09:21:34;;;;;;;5.80;2.00;;;20.40;66.00;;;;;;5056019;28;20029;-80
2023/09/25 09:24:01;;;;;;;7.95;2.03;;;20.30;65.90;;;;;;5063051;28;20028;-79
2023/09/25 09:26:30;;;;;;;6.13;1.60;;;20.30;65.80;;;;;;5074195;28;20317;-81
2023/09/25 09:28:58;;;;;;;8.63;2.05;;;20.30;65.50;;;;;;5074879;28;20033;-79
2023/09/25 09:31:25;;;;;;;9.48;2.38;;;20.30;65.30;;;;;;5074882;28;20086;-80
2023/09/25 09:33:55;;;;;;;6.18;2.20;;;20.30;65.40;;;;;;5068426;28;20491;-79
2023/09/25 09:36:23;;;;;;;6.75;2.45;;;20.30;65.20;;;;;;5054952;28;20044;-81
2023/09/25 09:38:53;;;;;;;10.48;2.67;;;20.30;64.90;;;;;;5055145;28;20392;-80
2023/09/25 09:41:21;;;;;;;6.15;2.30;;;20.30;64.50;;;;;;5055152;28;20024;-80
2023/09/25 09:43:49;;;;;;;7.53;2.33;;;20.30;64.00;;;;;;5071161;28;20024;-78
2023/09/25 09:46:19;;;;;;;9.00;2.20;;;20.30;63.80;;;;;;5078047;28;20020;-80
2023/09/25 09:48:48;;;;;;;7.28;2.08;;;20.20;63.50;;;;;;5065477;28;20540;-80
2023/09/25 09:51:18;;;;;;;8.65;2.53;;;20.20;63.10;;;;;;5083510;28;20076;-79
2023/09/25 09:53:46;;;;;;;7.45;2.92;;;20.20;62.70;;;;;;5057879;28;20376;-80
2023/09/25 09:56:20;;;;;;;7.72;2.25;;;20.20;62.70;;;;;;5074698;28;20020;-80
2023/09/25 09:58:49;;;;;;;6.50;2.42;;;20.20;62.00;;;;;;5072098;28;20017;-80
2023/09/25 10:01:16;;;;;;;8.63;2.10;;;20.20;62.00;;;;;;5074115;28;20025;-79
2023/09/25 10:03:44;;;;;;;5.82;2.30;;;20.20;61.90;;;;;;5074435;28;20043;-79
2023/09/25 10:06:11;;;;;;;5.38;1.77;;;20.10;61.80;;;;;;5071340;28;20029;-80
2023/09/25 10:08:48;;;;;;;3.35;1.58;;;20.10;61.60;;;;;;5072841;28;20117;-80
2023/09/25 10:11:22;;;;;;;6.90;1.77;;;20.10;61.60;;;;;;5074763;28;20037;-79
2023/09/25 10:13:58;;;;;;;5.40;2.00;;;20.10;61.30;;;;;;5064141;28;20119;-81
2023/09/25 10:16:30;;;;;;;5.95;2.30;;;20.10;61.20;;;;;;5059494;28;20024;-79
2023/09/25 10:18:57;;;;;;;5.28;2.30;;;20.10;61.20;;;;;;5062611;28;20032;-80
2023/09/25 10:21:25;;;;;;;7.43;2.13;;;20.10;61.20;;;;;;5072091;28;20102;-80
2023/09/25 10:23:56;;;;;;;8.07;4.10;;;20.10;60.90;;;;;;5069257;28;20055;-80
2023/09/25 10:26:28;;;;;;;11.95;7.53;;;20.10;60.80;;;;;;5071642;28;20455;-79
2023/09/25 10:29:19;;;;;;;19.35;11.32;;;20.10;60.70;;;;;;5073817;28;20543;-81
2023/09/25 10:31:47;;;;;;;11.57;8.00;;;20.00;60.80;;;;;;5061837;28;20060;-81
2023/09/25 10:34:16;;;;;;;14.23;8.85;;;20.00;60.90;;;;;;5058422;28;20110;-81
2023/09/25 10:36:51;;;;;;;10.13;3.90;;;20.00;61.00;;;;;;5065321;28;20068;-80
2023/09/25 10:39:19;;;;;;;9.63;3.35;;;20.00;61.00;;;;;;5052033;28;20117;-80
2023/09/25 10:41:57;;;;;;;6.95;2.55;;;20.00;60.90;;;;;;5066606;28;20021;-81
2023/09/25 10:44:28;;;;;;;8.75;2.60;;;20.00;60.90;;;;;;5062976;28;20829;-80
2023/09/25 10:46:56;;;;;;;7.45;2.47;;;19.90;61.10;;;;;;5073153;28;20476;-79
2023/09/25 10:49:23;;;;;;;4.80;2.47;;;19.90;61.40;;;;;;5068096;28;20029;-80
2023/09/25 10:51:51;;;;;;;6.45;2.30;;;19.80;61.60;;;;;;5061725;28;20055;-80
2023/09/25 10:54:18;;;;;;;5.95;2.88;;;19.80;61.70;;;;;;5052827;28;20082;-78
2023/09/25 10:56:46;;;;;;;6.65;2.50;;;19.70;62.10;;;;;;5064941;28;20025;-81
2023/09/25 10:59:14;;;;;;;9.13;2.30;;;19.70;62.50;;;;;;5060197;28;20044;-81
2023/09/25 11:01:41;;;;;;;6.43;2.10;;;19.60;62.70;;;;;;5066390;28;20067;-79
2023/09/25 11:04:10;;;;;;;7.28;1.65;;;19.60;63.00;;;;;;5054439;28;20064;-79
2023/09/25 11:06:37;;;;;;;5.32;1.77;;;19.60;63.30;;;;;;5055117;28;20025;-80
2023/09/25 11:09:11;;;;;;;5.53;1.73;;;19.40;64.10;;;;;;5054170;28;20037;-80
2023/09/25 11:11:40;;;;;;;8.93;2.05;;;19.40;64.50;;;;;;5069927;28;20024;-80
2023/09/25 11:14:08;;;;;;;4.32;1.88;;;19.30;64.80;;;;;;5066234;28;20107;-81
2023/09/25 11:16:36;;;;;;;4.63;2.05;;;19.30;65.20;;;;;;5071355;28;20096;-80
2023/09/25 11:19:14;;;;;;;7.00;2.08;;;19.30;65.30;;;;;;5072873;28;20446;-81
2023/09/25 11:21:45;;;;;;;7.93;2.47;;;19.30;65.10;;;;;;5054552;28;20507;-78
2023/09/25 11:24:13;;;;;;;5.53;2.42;;;19.30;64.60;;;;;;5066613;28;20032;-79
2023/09/25 11:26:43;;;;;;;7.20;2.45;;;19.30;64.70;;;;;;5071784;28;20062;-81
2023/09/25 11:29:16;;;;;;;4.97;2.30;;;19.20;65.00;;;;;;5063570;28;20099;-80
2023/09/25 11:31:46;;;;;;;9.27;2.20;;;19.20;65.40;;;;;;5060955;28;20023;-78
2023/09/25 11:34:23;;;;;;;9.70;2.17;;;19.10;65.50;;;;;;5064905;28;20020;-80
2023/09/25 11:36:51;;;;;;;6.32;2.08;;;19.10;65.70;;;;;;5057279;28;20502;-79
2023/09/25 11:39:22;;;;;;;13.15;2.45;;;19.20;65.60;;;;;;5073129;28;20069;-79
2023/09/25 11:41:50;;;;;;;5.57;1.85;;;19.20;65.50;;;;;;5071557;28;20103;-80
2023/09/25 11:44:18;;;;;;;8.63;2.47;;;19.20;65.80;;;;;;5067608;28;20499;-78
2023/09/25 11:46:46;;;;;;;5.55;1.80;;;19.20;65.80;;;;;;5071816;28;20032;-80
2023/09/25 11:49:14;;;;;;;8.32;2.42;;;19.20;66.00;;;;;;5067604;28;20522;-80
2023/09/25 11:51:41;;;;;;;6.18;1.95;;;19.10;66.00;;;;;;5058443;28;20468;-78
2023/09/25 11:54:09;;;;;;;5.50;1.50;;;19.10;66.10;;;;;;5069465;28;20160;-79
2023/09/25 11:56:36;;;;;;;7.60;1.50;;;19.00;66.30;;;;;;5069501;28;20505;-81
2023/09/25 11:59:04;;;;;;;5.78;1.70;;;19.00;66.30;;;;;;5066397;28;20159;-79
2023/09/25 12:01:31;;;;;;;9.85;2.92;;;19.00;66.30;;;;;;5070248;28;20029;-81
2023/09/25 12:03:58;;;;;;;6.40;1.60;;;19.00;66.30;;;;;;5064591;28;20032;-79
2023/09/25 12:06:26;;;;;;;4.80;1.50;;;19.00;66.30;;;;;;5068078;28;20040;-81
2023/09/25 12:08:53;;;;;;;8.60;2.13;;;19.00;66.20;;;;;;5062873;28;20456;-81
2023/09/25 12:11:21;;;;;;;7.72;1.98;;;19.00;66.20;;;;;;5057250;28;20160;-81
2023/09/25 12:13:49;;;;;;;5.70;1.80;;;18.90;66.20;;;;;;5067297;28;20114;-81
2023/09/25 12:16:16;;;;;;;6.60;2.05;;;18.90;66.20;;;;;;5068665;28;20479;-81
2023/09/25 12:18:44;;;;;;;7.45;2.22;;;18.90;66.40;;;;;;5060531;28;20020;-80
2023/09/25 12:21:11;;;;;;;7.97;2.20;;;18.80;66.60;;;;;;5059822;28;20112;-79
2023/09/25 12:23:42;;;;;;;4.40;1.65;;;18.70;66.90;;;;;;5061207;28;20024;-78
2023/09/25 12:26:09;;;;;;;7.13;1.75;;;18.70;67.30;;;;;;5052881;28;20495;-82
2023/09/25 12:28:37;;;;;;;4.85;1.80;;;18.60;67.60;;;;;;5060663;28;20051;-83
2023/09/25 12:31:05;;;;;;;6.40;1.70;;;18.60;67.80;;;;;;5061559;28;20025;-80
2023/09/25 12:33:32;;;;;;;6.03;2.22;;;18.50;67.80;;;;;;5058153;28;20021;-82
2023/09/25 12:36:00;;;;;;;7.22;1.80;;;18.50;68.00;;;;;;5060116;28;20040;-79
2023/09/25 12:38:28;;;;;;;8.05;1.90;;;18.50;68.10;;;;;;5064136;28;20036;-82
2023/09/25 12:40:56;;;;;;;6.75;2.33;;;18.40;68.10;;;;;;5069792;28;20415;-77
2023/09/25 12:43:23;;;;;;;7.32;1.80;;;18.30;68.10;;;;;;5060620;28;20087;-79
2023/09/25 12:45:51;;;;;;;5.55;2.38;;;18.30;68.30;;;;;;5065931;28;20647;-78
2023/09/25 12:48:19;;;;;;;7.15;1.83;;;18.20;68.50;;;;;;5063804;28;20387;-79
2023/09/25 12:50:47;;;;;;;7.80;1.83;;;18.20;68.80;;;;;;5067643;28;20033;-79